Time;durP1;ratioP1;P1;durP2;ratioP2;P2;SDS_P1;SDS_P2;PMS_P1;PMS_P2;Temp;Humidity;BMP_temperature;BMP_pressure;BME280_temperature;BME280_humidity;BME280_pressure;Samples;Min_cycle;Max_cycle;Signal;HPM_P1;HPM_P2
2023/02/15 00:00:54;;;;;;;;;;;;;;;23.93;30.36;96304.72;4955444;28;1166;-67
2023/02/15 00:03:20;;;;;;;;;;;;;;;23.88;30.68;96299.13;4966540;28;1391;-67
2023/02/15 00:05:45;;;;;;;;;;;;;;;23.92;30.32;96295.03;4973488;28;1898;-67
2023/02/15 00:08:10;;;;;;;;;;;;;;;23.91;30.60;96296.06;4969131;28;1489;-67
2023/02/15 00:10:35;;;;;;;;;;;;;;;23.99;30.54;96297.75;4968724;28;1486;-67
2023/02/15 00:13:01;;;;;;;;;;;;;;;24.00;30.60;96299.41;4956941;28;1444;-67
2023/02/15 00:15:26;;;;;;;;;;;;;;;23.95;30.61;96302.66;4968024;28;1188;-69
2023/02/15 00:17:51;;;;;;;;;;;;;;;23.99;30.84;96309.31;4963011;28;1493;-70
2023/02/15 00:20:18;;;;;;;;;;;;;;;23.88;31.09;96309.84;4964376;28;1350;-68
2023/02/15 00:22:43;;;;;;;;;;;;;;;23.95;31.01;96308.03;4961616;28;1473;-67
2023/02/15 00:25:08;;;;;;;;;;;;;;;23.95;31.04;96309.88;4967150;28;1914;-66
2023/02/15 00:27:34;;;;;;;;;;;;;;;24.00;30.63;96313.63;4962965;28;1646;-67
2023/02/15 00:29:59;;;;;;;;;;;;;;;24.06;30.66;96303.16;4964890;28;1273;-69
2023/02/15 00:32:25;;;;;;;;;;;;;;;24.10;30.69;96301.72;4966150;28;1541;-69
2023/02/15 00:34:50;;;;;;;;;;;;;;;24.14;30.75;96305.69;4956381;28;1316;-70
2023/02/15 00:37:15;;;;;;;;;;;;;;;24.15;30.71;96312.69;4958307;28;1176;-70
2023/02/15 00:39:40;;;;;;;;;;;;;;;24.15;31.08;96315.38;4971378;28;1394;-69
2023/02/15 00:42:06;;;;;;;;;;;;;;;24.19;30.98;96311.28;4974700;28;1438;-70
2023/02/15 00:44:31;;;;;;;;;;;;;;;24.14;31.17;96311.06;4958048;28;1437;-70
2023/02/15 00:46:56;;;;;;;;;;;;;;;24.15;30.98;96318.91;4955894;28;1902;-70
2023/02/15 00:49:22;;;;;;;;;;;;;;;24.09;30.88;96311.63;4968483;28;1195;-68
2023/02/15 00:51:47;;;;;;;;;;;;;;;24.07;30.77;96318.22;4960368;28;1187;-67
2023/02/15 00:54:12;;;;;;;;;;;;;;;24.02;30.83;96305.38;4969015;28;1340;-68
2023/02/15 00:56:37;;;;;;;;;;;;;;;24.06;30.81;96305.84;4955584;28;1446;-67
2023/02/15 00:59:03;;;;;;;;;;;;;;;24.02;31.12;96303.56;4959852;28;1461;-68
2023/02/15 01:01:28;;;;;;;;;;;;;;;24.01;31.00;96309.09;4965812;28;1574;-68
2023/02/15 01:03:53;;;;;;;;;;;;;;;23.97;31.44;96306.00;4972481;28;1446;-68
2023/02/15 01:06:18;;;;;;;;;;;;;;;23.97;31.25;96300.63;4965427;28;1902;-67
2023/02/15 01:08:45;;;;;;;;;;;;;;;23.98;30.97;96296.91;4959165;28;1461;-67
2023/02/15 01:11:15;;;;;;;;;;;;;;;23.96;31.38;96304.34;4971543;28;1316;-67
2023/02/15 01:13:40;;;;;;;;;;;;;;;23.93;31.32;96304.72;4965417;28;1361;-67
2023/02/15 01:16:06;;;;;;;;;;;;;;;23.93;31.38;96296.66;4975091;28;1484;-66
2023/02/15 01:18:32;;;;;;;;;;;;;;;23.91;31.37;96301.41;4968737;28;1419;-67
2023/02/15 01:20:57;;;;;;;;;;;;;;;23.92;31.56;96300.38;4958347;28;1280;-67
2023/02/15 01:23:23;;;;;;;;;;;;;;;23.93;31.20;96293.97;4959349;28;1407;-67
2023/02/15 01:25:48;;;;;;;;;;;;;;;23.97;31.32;96294.44;4967195;28;1906;-68
2023/02/15 01:28:13;;;;;;;;;;;;;;;23.98;31.21;96286.19;4985102;28;1419;-68
2023/02/15 01:30:38;;;;;;;;;;;;;;;23.96;31.51;96292.78;4959491;28;1410;-68
2023/02/15 01:33:04;;;;;;;;;;;;;;;23.96;31.53;96276.69;4966473;28;1265;-68
2023/02/15 01:35:29;;;;;;;;;;;;;;;23.96;31.38;96282.91;4959232;28;1492;-68
2023/02/15 01:37:55;;;;;;;;;;;;;;;23.95;31.70;96283.91;4974493;28;1505;-68
2023/02/15 01:40:20;;;;;;;;;;;;;;;24.01;31.47;96276.94;4973035;28;1477;-66
2023/02/15 01:42:50;;;;;;;;;;;;;;;24.00;31.64;96277.97;4957587;28;1336;-66
2023/02/15 01:45:23;;;;;;;;;;;;;;;24.02;31.71;96279.44;4958457;28;1890;-67
2023/02/15 01:48:05;;;;;;;;;;;;;;;24.01;31.63;96274.25;4955246;28;1423;-67
2023/02/15 01:50:30;;;;;;;;;;;;;;;24.06;31.55;96273.69;4970247;28;1190;-67
2023/02/15 01:52:58;;;;;;;;;;;;;;;24.03;31.72;96280.25;4967187;28;1414;-68
2023/02/15 01:55:24;;;;;;;;;;;;;;;23.91;31.95;96269.25;4956549;28;1288;-68
2023/02/15 01:57:50;;;;;;;;;;;;;;;23.98;31.89;96270.09;4968424;28;1426;-68
2023/02/15 02:00:17;;;;;;;;;;;;;;;24.01;32.01;96274.25;4968796;28;1486;-67
2023/02/15 02:02:43;;;;;;;;;;;;;;;24.02;32.07;96271.38;4964780;28;1171;-67
2023/02/15 02:05:09;;;;;;;;;;;;;;;24.03;32.21;96272.22;4948822;28;1962;-72
2023/02/15 02:07:36;;;;;;;;;;;;;;;24.04;32.23;96273.03;4963239;28;1407;-67
2023/02/15 02:10:03;;;;;;;;;;;;;;;24.05;32.16;96280.03;4967389;28;1300;-67
2023/02/15 02:12:28;;;;;;;;;;;;;;;24.01;32.12;96275.06;4969706;28;1320;-67
2023/02/15 02:14:54;;;;;;;;;;;;;;;24.00;32.08;96276.09;4964060;28;1098;-67
2023/02/15 02:17:38;;;;;;;;;;;;;;;24.01;31.97;96275.06;4948749;28;1307;-67
2023/02/15 02:20:13;;;;;;;;;;;;;;;24.00;32.29;96273.44;4969976;28;1170;-67
2023/02/15 02:22:44;;;;;;;;;;;;;;;24.02;32.24;96279.44;4959002;28;1427;-68
2023/02/15 02:25:18;;;;;;;;;;;;;;;24.04;32.14;96286.44;4963931;28;1910;-67
2023/02/15 02:27:52;;;;;;;;;;;;;;;23.99;32.26;96290.56;4956095;28;1289;-67
2023/02/15 02:30:30;;;;;;;;;;;;;;;24.02;32.13;96284.78;4963527;28;1442;-66
2023/02/15 02:33:14;;;;;;;;;;;;;;;24.02;32.48;96290.16;4953866;28;1352;-68
2023/02/15 02:35:48;;;;;;;;;;;;;;;23.99;32.60;96282.50;4972503;28;1343;-71
2023/02/15 02:38:32;;;;;;;;;;;;;;;23.99;32.42;96282.50;4960267;28;1517;-71
2023/02/15 02:40:57;;;;;;;;;;;;;;;24.01;32.60;96288.47;4970520;28;1141;-71
2023/02/15 02:43:25;;;;;;;;;;;;;;;24.03;32.71;96282.94;4977136;28;1391;-71
2023/02/15 02:45:58;;;;;;;;;;;;;;;24.05;32.71;96282.72;4976091;28;1934;-70
2023/02/15 02:48:26;;;;;;;;;;;;;;;24.05;32.68;96282.72;4968769;28;1470;-70
2023/02/15 02:50:51;;;;;;;;;;;;;;;24.05;32.73;96290.75;4955715;28;1240;-68
2023/02/15 02:53:17;;;;;;;;;;;;;;;24.06;32.76;96284.41;4977821;28;1477;-69
2023/02/15 02:55:42;;;;;;;;;;;;;;;24.05;32.75;96285.41;4975014;28;1380;-71
2023/02/15 02:58:16;;;;;;;;;;;;;;;24.08;32.73;96285.88;4965667;28;1414;-71
2023/02/15 03:00:54;;;;;;;;;;;;;;;24.11;32.80;96287.31;4961887;28;1454;-71
2023/02/15 03:03:43;;;;;;;;;;;;;;;24.10;32.78;96299.88;4961497;28;1530;-68
2023/02/15 03:06:17;;;;;;;;;;;;;;;24.12;32.58;96289.78;4984283;28;1882;-68
2023/02/15 03:08:47;;;;;;;;;;;;;;;24.14;32.69;96303.84;4965755;28;1400;-68
2023/02/15 03:11:12;;;;;;;;;;;;;;;24.13;32.72;96306.69;4959976;28;1049;-68
2023/02/15 03:13:38;;;;;;;;;;;;;;;24.10;32.75;96305.25;4950493;28;1352;-68
2023/02/15 03:18:58;;;;;;;;;;;;;;;24.09;33.01;96310.81;4965179;28;1312;-68
2023/02/15 03:21:42;;;;;;;;;;;;;;;24.05;32.91;96306.84;4967897;28;1282;-68
2023/02/15 03:24:13;;;;;;;;;;;;;;;24.06;33.03;96305.84;4963574;28;1209;-67
2023/02/15 03:26:39;;;;;;;;;;;;;;;24.08;32.99;96307.31;4955994;28;1902;-68
2023/02/15 03:29:06;;;;;;;;;;;;;;;24.09;32.78;96308.13;4964716;28;1200;-68
2023/02/15 03:31:34;;;;;;;;;;;;;;;24.07;32.93;96302.94;4966869;28;1204;-68
2023/02/15 03:34:02;;;;;;;;;;;;;;;24.09;33.01;96302.78;4975013;28;1392;-67
2023/02/15 03:36:27;;;;;;;;;;;;;;;24.10;33.01;96304.41;4962520;28;1351;-69
2023/02/15 03:39:10;;;;;;;;;;;;;;;24.11;33.15;96303.41;4970779;28;1465;-69
2023/02/15 03:41:39;;;;;;;;;;;;;;;24.11;32.76;96300.72;4959295;28;1243;-69
2023/02/15 03:44:06;;;;;;;;;;;;;;;24.09;33.08;96298.22;4963291;28;1427;-70
2023/02/15 03:46:51;;;;;;;;;;;;;;;24.09;33.18;96303.59;4959281;28;1898;-70
2023/02/15 03:49:23;;;;;;;;;;;;;;;24.11;33.18;96300.72;4961898;28;1205;-69
2023/02/15 03:51:50;;;;;;;;;;;;;;;24.10;32.98;96299.06;4970391;28;1105;-69
2023/02/15 03:54:38;;;;;;;;;;;;;;;24.10;33.35;96304.41;4979162;28;1315;-69
2023/02/15 04:02:38;;;;;;;;;;;;;;;24.12;33.35;96310.41;4960886;28;1418;-69
2023/02/15 04:05:03;;;;;;;;;;;;;;;24.08;33.56;96307.31;4972800;28;1973;-66
2023/02/15 04:07:28;;;;;;;;;;;;;;;24.02;33.59;96314.28;4972597;28;1394;-69
2023/02/15 04:12:37;;;;;;;;;;;;;;;24.08;33.70;96325.22;4971626;28;1188;-65
2023/02/15 04:17:47;;;;;;;;;;;;;;;24.17;32.89;96326.75;4970945;28;1350;-66
2023/02/15 04:25:40;;;;;;;;;;;;;;;19.39;26.47;96341.00;4971517;28;1899;-66
2023/02/15 04:28:07;;;;;;;;;;;;;;;17.54;28.01;96343.28;4963451;28;1481;-66
2023/02/15 04:30:32;;;;;;;;;;;;;;;16.71;28.64;96346.13;4981826;28;1245;-66
2023/02/15 04:32:57;;;;;;;;;;;;;;;16.30;29.59;96350.91;4963859;28;1401;-66
2023/02/15 04:35:23;;;;;;;;;;;;;;;16.11;29.26;96356.28;4971804;28;1299;-65
2023/02/15 04:37:48;;;;;;;;;;;;;;;15.72;29.59;96353.75;4968983;28;1280;-66
2023/02/15 04:40:14;;;;;;;;;;;;;;;15.75;29.62;96353.44;4974315;28;1075;-66
2023/02/15 04:42:39;;;;;;;;;;;;;;;15.22;30.22;96364.44;4969567;28;1148;-65
2023/02/15 04:45:05;;;;;;;;;;;;;;;15.05;30.83;96360.69;4958729;28;1898;-66
2023/02/15 04:47:31;;;;;;;;;;;;;;;14.78;31.42;96364.00;4966381;28;1418;-67
2023/02/15 04:49:56;;;;;;;;;;;;;;;15.50;31.42;96355.66;4968807;28;1410;-65
2023/02/15 04:52:21;;;;;;;;;;;;;;;17.40;30.60;96357.94;4972377;28;1505;-65
2023/02/15 04:54:47;;;;;;;;;;;;;;;18.88;30.29;96351.72;4968070;28;1240;-65
2023/02/15 04:57:12;;;;;;;;;;;;;;;19.81;29.74;96362.16;4961209;28;1365;-67
2023/02/15 04:59:37;;;;;;;;;;;;;;;20.34;29.31;96360.72;4960861;28;1227;-66
2023/02/15 05:02:03;;;;;;;;;;;;;;;20.63;29.18;96356.66;4966281;28;1231;-66
2023/02/15 05:04:28;;;;;;;;;;;;;;;20.84;29.11;96359.56;4965085;28;1553;-66
2023/02/15 05:06:54;;;;;;;;;;;;;;;21.11;29.19;96354.75;4962973;28;1965;-70
2023/02/15 05:09:19;;;;;;;;;;;;;;;21.43;29.45;96371.59;4967464;28;1228;-67
2023/02/15 05:11:45;;;;;;;;;;;;;;;20.54;28.88;96368.38;4971597;28;1319;-67
2023/02/15 05:14:10;;;;;;;;;;;;;;;20.83;30.00;96362.41;4968578;28;1466;-68
2023/02/15 05:16:35;;;;;;;;;;;;;;;21.16;30.44;96367.59;4966879;28;1491;-64
2023/02/15 05:19:00;;;;;;;;;;;;;;;21.36;30.50;96367.97;4963798;28;1647;-64
2023/02/15 05:21:26;;;;;;;;;;;;;;;21.47;30.54;96371.06;4975215;28;964;-64
2023/02/15 05:23:51;;;;;;;;;;;;;;;21.56;30.43;96374.50;4974885;28;905;-64
2023/02/15 05:29:02;;;;;;;;;;;;;;;21.72;30.07;96387.75;4966608;28;1041;-64
2023/02/15 05:31:27;;;;;;;;;;;;;;;21.78;30.09;96378.19;4962062;28;1063;-64
2023/02/15 05:33:53;;;;;;;;;;;;;;;21.84;30.01;96382.00;4970222;28;1265;-64
2023/02/15 05:36:18;;;;;;;;;;;;;;;21.88;30.15;96378.75;4955316;28;956;-71
2023/02/15 05:38:43;;;;;;;;;;;;;;;21.91;30.13;96383.75;4955408;28;810;-64
2023/02/15 05:41:09;;;;;;;;;;;;;;;21.97;29.90;96387.53;4945460;28;1173;-65
2023/02/15 05:43:34;;;;;;;;;;;;;;;22.03;29.84;96392.19;4955324;28;960;-66
2023/02/15 05:46:00;;;;;;;;;;;;;;;22.08;29.89;96386.28;4955215;28;1875;-65
2023/02/15 05:48:26;;;;;;;;;;;;;;;22.09;29.91;96391.44;4955332;28;868;-65
2023/02/15 05:51:05;;;;;;;;;;;;;;;22.09;29.89;96394.13;4955469;28;838;-66
2023/02/15 05:53:31;;;;;;;;;;;;;;;22.17;29.88;96399.44;4949199;28;1133;-65
2023/02/15 05:55:58;;;;;;;;;;;;;;;22.19;29.81;96392.03;4955041;28;977;-66
2023/02/15 05:58:27;;;;;;;;;;;;;;;22.19;29.75;96397.38;4953704;28;1314;-63
2023/02/15 06:00:53;;;;;;;;;;;;;;;22.23;29.72;96398.69;4955297;28;952;-65
2023/02/15 06:03:18;;;;;;;;;;;;;;;22.26;29.88;96394.81;4944047;28;1310;-66
2023/02/15 06:05:43;;;;;;;;;;;;;;;22.32;29.50;96396.75;4969592;28;1859;-66
2023/02/15 06:08:09;;;;;;;;;;;;;;;22.35;29.56;96400.91;4954756;28;1304;-65
2023/02/15 06:10:34;;;;;;;;;;;;;;;22.38;29.50;96396.03;4955041;28;881;-65
2023/02/15 06:12:59;;;;;;;;;;;;;;;22.38;29.51;96404.06;4954721;28;802;-65
2023/02/15 06:15:24;;;;;;;;;;;;;;;22.42;29.40;96397.31;4944657;28;1048;-65
2023/02/15 06:17:49;;;;;;;;;;;;;;;22.45;29.53;96402.31;4954935;28;905;-68
2023/02/15 06:20:15;;;;;;;;;;;;;;;22.50;29.38;96398.25;4954812;28;905;-66
2023/02/15 06:22:40;;;;;;;;;;;;;;;22.50;29.41;96399.09;4955099;28;935;-65
2023/02/15 06:25:05;;;;;;;;;;;;;;;22.51;29.38;96406.06;4951139;28;1181;-66
2023/02/15 06:27:31;;;;;;;;;;;;;;;22.56;29.33;96406.38;4945958;28;1887;-66
2023/02/15 06:29:56;;;;;;;;;;;;;;;22.59;29.30;96414.03;4954730;28;881;-66
2023/02/15 06:32:21;;;;;;;;;;;;;;;22.58;29.18;96401.66;4954685;28;794;-64
2023/02/15 06:34:46;;;;;;;;;;;;;;;22.62;29.10;96413.66;4953356;28;1613;-64
2023/02/15 06:37:12;;;;;;;;;;;;;;;22.65;29.28;96405.28;4945732;28;1148;-64
2023/02/15 06:39:37;;;;;;;;;;;;;;;22.65;29.32;96407.97;4953617;28;1158;-64
2023/02/15 06:42:02;;;;;;;;;;;;;;;22.64;29.26;96406.28;4954600;28;798;-64
2023/02/15 06:44:27;;;;;;;;;;;;;;;22.68;29.24;96414.75;4969296;28;1627;-64
2023/02/15 06:46:53;;;;;;;;;;;;;;;22.71;29.19;96416.22;4954438;28;1893;-65
2023/02/15 06:49:18;;;;;;;;;;;;;;;22.72;29.21;96409.88;4959320;28;1209;-65
2023/02/15 06:51:43;;;;;;;;;;;;;;;22.74;28.99;96405.16;4953278;28;928;-65
2023/02/15 06:54:08;;;;;;;;;;;;;;;22.76;29.13;96400.47;4954492;28;877;-65
2023/02/15 06:56:34;;;;;;;;;;;;;;;22.77;29.17;96399.44;4954808;28;802;-65
2023/02/15 06:58:59;;;;;;;;;;;;;;;22.77;28.98;96404.78;4954484;28;928;-67
2023/02/15 07:01:24;;;;;;;;;;;;;;;22.79;29.10;96400.09;4944986;28;1078;-64
2023/02/15 07:03:50;;;;;;;;;;;;;;;22.81;29.12;96400.75;4954785;29;875;-65
2023/02/15 07:06:15;;;;;;;;;;;;;;;22.80;29.08;96402.59;4954248;28;1889;-64
2023/02/15 07:08:40;;;;;;;;;;;;;;;22.80;29.26;96399.09;4954218;29;1430;-65
2023/02/15 07:13:52;;;;;;;;;;;;;;;22.83;29.03;96402.22;4954041;29;1117;-64
2023/02/15 07:16:17;;;;;;;;;;;;;;;22.82;28.68;96408.56;4953009;28;1287;-64
2023/02/15 07:18:42;;;;;;;;;;;;;;;22.85;28.80;96412.72;4954307;28;940;-65
2023/02/15 07:21:07;;;;;;;;;;;;;;;22.85;29.06;96421.59;4954279;28;814;-64
2023/02/15 07:23:37;;;;;;;;;;;;;;;22.87;29.09;96416.88;4944313;28;1075;-65
2023/02/15 07:26:02;;;;;;;;;;;;;;;22.92;28.89;96412.84;4956672;28;1970;-65
2023/02/15 07:28:28;;;;;;;;;;;;;;;22.93;29.02;96409.94;4957705;28;866;-65
2023/02/15 07:30:53;;;;;;;;;;;;;;;22.93;29.00;96415.31;4972498;28;1416;-65
2023/02/15 07:33:26;;;;;;;;;;;;;;;22.97;28.91;96400.59;4954376;28;793;-65
2023/02/15 07:36:00;;;;;;;;;;;;;;;23.03;28.84;96405.19;4952496;28;1000;-65
2023/02/15 07:38:26;;;;;;;;;;;;;;;23.06;28.60;96396.78;4957562;28;875;-66
2023/02/15 07:40:51;;;;;;;;;;;;;;;23.12;28.70;96397.88;4956213;28;1178;-64
2023/02/15 07:43:17;;;;;;;;;;;;;;;23.16;28.78;96393.78;4957526;28;863;-65
2023/02/15 07:45:42;;;;;;;;;;;;;;;23.16;28.48;96388.44;4947554;28;1895;-65
2023/02/15 07:48:08;;;;;;;;;;;;;;;23.17;28.55;96386.59;4957142;28;1322;-65
2023/02/15 07:50:33;;;;;;;;;;;;;;;23.19;28.64;96395.25;4956012;28;1298;-65
2023/02/15 07:53:01;;;;;;;;;;;;;;;23.16;28.31;96390.28;4957411;28;842;-65
2023/02/15 07:55:26;;;;;;;;;;;;;;;23.20;28.51;96389.75;4955977;28;1169;-65
2023/02/15 07:57:53;;;;;;;;;;;;;;;23.25;28.56;96387.34;4947201;28;1055;-64
2023/02/15 08:00:22;;;;;;;;;;;;;;;23.27;28.46;96390.63;4955927;28;1284;-65
2023/02/15 08:02:48;;;;;;;;;;;;;;;23.26;28.55;96399.69;4957103;28;929;-64
2023/02/15 08:05:14;;;;;;;;;;;;;;;23.28;28.19;96396.81;4957135;28;1902;-64
2023/02/15 08:07:39;;;;;;;;;;;;;;;23.30;28.38;96405.50;4952055;28;1306;-65
2023/02/15 08:10:04;;;;;;;;;;;;;;;23.34;28.11;96401.44;4951952;28;1058;-64
2023/02/15 08:12:30;;;;;;;;;;;;;;;23.31;28.38;96402.63;4956874;28;1334;-64
2023/02/15 08:14:55;;;;;;;;;;;;;;;23.31;28.37;96396.47;4956948;28;861;-64
2023/02/15 08:17:20;;;;;;;;;;;;;;;23.30;28.37;96400.97;4956882;28;980;-65
2023/02/15 08:19:46;;;;;;;;;;;;;;;23.35;28.29;96403.91;4947190;28;997;-65
2023/02/15 08:22:13;;;;;;;;;;;;;;;23.37;28.22;96401.06;4956918;28;1110;-65
2023/02/15 08:24:39;;;;;;;;;;;;;;;23.36;28.33;96399.38;4955675;28;1169;-64
2023/02/15 08:27:05;;;;;;;;;;;;;;;23.38;27.91;96402.69;4956628;28;1983;-65
2023/02/15 08:29:31;;;;;;;;;;;;;;;23.39;28.11;96403.53;4956911;28;869;-65
2023/02/15 08:32:01;;;;;;;;;;;;;;;23.40;28.22;96403.34;4945509;28;1300;-65
2023/02/15 08:34:27;;;;;;;;;;;;;;;23.42;28.14;96409.31;4956833;28;873;-66
2023/02/15 08:36:52;;;;;;;;;;;;;;;23.41;28.18;96406.84;4955962;28;834;-65
2023/02/15 08:39:18;;;;;;;;;;;;;;;23.41;28.22;96404.16;4956504;28;890;-64
2023/02/15 08:41:44;;;;;;;;;;;;;;;23.41;28.02;96410.34;4951980;28;1081;-65
2023/02/15 08:44:10;;;;;;;;;;;;;;;23.46;28.16;96407.94;4951270;28;1272;-65
2023/02/15 08:46:37;;;;;;;;;;;;;;;23.47;28.09;96406.09;4956247;28;1895;-64
2023/02/15 08:49:03;;;;;;;;;;;;;;;23.51;27.88;96408.22;4956369;28;857;-65
2023/02/15 08:51:29;;;;;;;;;;;;;;;23.52;28.22;96414.41;4955024;28;1189;-65
2023/02/15 08:53:56;;;;;;;;;;;;;;;23.51;28.04;96410.06;4946474;28;1043;-66
2023/02/15 08:56:23;;;;;;;;;;;;;;;23.57;27.85;96414.66;4954992;28;1351;-65
2023/02/15 08:58:49;;;;;;;;;;;;;;;23.58;27.89;96408.28;4956214;28;803;-65
2023/02/15 09:01:19;;;;;;;;;;;;;;;23.54;28.17;96417.72;4956029;28;1065;-65
2023/02/15 09:03:46;;;;;;;;;;;;;;;23.54;28.01;96413.19;4956427;28;869;-65
2023/02/15 09:06:11;;;;;;;;;;;;;;;23.57;28.16;96422.69;4946059;28;1961;-65
2023/02/15 09:08:37;;;;;;;;;;;;;;;23.57;28.11;96415.47;4955915;28;1129;-65
2023/02/15 09:11:23;;;;;;;;;;;;;;;23.57;28.06;96410.13;4956230;28;804;-65
2023/02/15 09:13:53;;;;;;;;;;;;;;;23.60;28.15;96410.78;4956202;28;759;-65
2023/02/15 09:16:19;;;;;;;;;;;;;;;23.61;28.20;96413.25;4945254;28;1225;-65
2023/02/15 09:18:44;;;;;;;;;;;;;;;23.62;28.12;96414.06;4955519;28;1076;-65
2023/02/15 09:21:13;;;;;;;;;;;;;;;23.59;28.21;96415.28;4955776;28;822;-65
2023/02/15 09:23:38;;;;;;;;;;;;;;;23.60;28.11;96410.78;4955948;28;877;-65
2023/02/15 09:26:05;;;;;;;;;;;;;;;23.62;28.23;96422.09;4955539;29;1906;-65
2023/02/15 09:28:32;;;;;;;;;;;;;;;23.65;27.99;96416.38;4945738;28;1069;-64
2023/02/15 09:31:04;;;;;;;;;;;;;;;23.68;28.07;96418.66;4970401;28;1309;-66
2023/02/15 09:33:29;;;;;;;;;;;;;;;23.70;27.90;96419.31;4970744;28;1241;-65
2023/02/15 09:35:56;;;;;;;;;;;;;;;23.68;28.09;96421.34;4954505;28;1281;-65
2023/02/15 09:38:21;;;;;;;;;;;;;;;23.69;28.11;96405.09;4951059;28;933;-65
2023/02/15 09:40:53;;;;;;;;;;;;;;;23.69;27.97;96414.97;4950211;28;1068;-66
2023/02/15 09:43:21;;;;;;;;;;;;;;;23.70;28.10;96411.28;4970217;28;1233;-65
2023/02/15 09:45:59;;;;;;;;;;;;;;;23.73;27.85;96416.28;4955306;28;1906;-65
2023/02/15 09:48:27;;;;;;;;;;;;;;;23.72;27.87;96415.44;4954553;28;854;-65
2023/02/15 09:51:11;;;;;;;;;;;;;;;23.70;28.19;96419.31;4945338;28;1152;-65
2023/02/15 09:53:36;;;;;;;;;;;;;;;23.70;28.08;96413.94;4954539;28;1190;-65
2023/02/15 09:56:04;;;;;;;;;;;;;;;23.70;28.00;96408.59;4955389;28;830;-65
2023/02/15 09:58:55;;;;;;;;;;;;;;;23.74;28.01;96410.75;4953896;28;1193;-65
2023/02/15 10:01:50;;;;;;;;;;;;;;;23.75;27.81;96403.53;4949093;28;1267;-65
2023/02/15 10:04:21;;;;;;;;;;;;;;;23.76;27.78;96408.72;4936101;28;1117;-66
2023/02/15 10:07:06;;;;;;;;;;;;;;;23.74;27.84;96405.38;4953419;28;1910;-65
2023/02/15 10:09:31;;;;;;;;;;;;;;;23.75;27.89;96399.00;4954997;28;921;-65
2023/02/15 10:12:15;;;;;;;;;;;;;;;23.76;28.05;96405.16;4954968;28;837;-65
2023/02/15 10:14:45;;;;;;;;;;;;;;;23.77;27.95;96388.09;4945019;28;1136;-66
2023/02/15 10:17:11;;;;;;;;;;;;;;;23.77;27.76;96396.13;4953615;28;1271;-65
2023/02/15 10:19:42;;;;;;;;;;;;;;;23.77;27.99;96386.22;4954826;28;814;-65
2023/02/15 10:22:25;;;;;;;;;;;;;;;23.79;27.91;96396.75;4955077;28;929;-65
2023/02/15 10:25:01;;;;;;;;;;;;;;;23.78;27.91;96395.09;4944942;28;1043;-66
2023/02/15 10:27:29;;;;;;;;;;;;;;;23.78;27.93;96387.06;4955025;28;2049;-65
2023/02/15 10:30:04;;;;;;;;;;;;;;;23.81;27.85;96391.22;4954740;28;928;-65
2023/02/15 10:32:31;;;;;;;;;;;;;;;23.81;27.94;96383.16;4953444;28;1295;-65
2023/02/15 10:35:16;;;;;;;;;;;;;;;23.79;27.73;96381.53;4954743;28;815;-66
2023/02/15 10:38:08;;;;;;;;;;;;;;;23.83;27.73;96376.59;4938443;28;1462;-66
2023/02/15 10:40:39;;;;;;;;;;;;;;;23.81;27.74;96375.94;4969353;28;1364;-64
2023/02/15 10:43:14;;;;;;;;;;;;;;;23.82;27.84;96368.72;4953332;28;1314;-64
2023/02/15 10:45:44;;;;;;;;;;;;;;;23.84;27.81;96380.94;4953231;28;1898;-69
2023/02/15 10:48:27;;;;;;;;;;;;;;;23.85;27.59;96366.53;4943473;28;1334;-64
2023/02/15 10:50:55;;;;;;;;;;;;;;;23.85;27.54;96357.63;4954773;28;822;-64
2023/02/15 10:53:38;;;;;;;;;;;;;;;23.85;27.48;96365.66;4954728;28;869;-64
2023/02/15 10:56:04;;;;;;;;;;;;;;;23.87;27.66;96369.00;4954489;28;894;-64
2023/02/15 10:58:36;;;;;;;;;;;;;;;23.88;27.60;96363.44;4945062;28;1300;-64
2023/02/15 11:01:05;;;;;;;;;;;;;;;23.90;27.83;96360.56;4956689;28;1184;-65
2023/02/15 11:03:33;;;;;;;;;;;;;;;23.88;27.61;96350.06;4958268;28;822;-65
2023/02/15 11:05:58;;;;;;;;;;;;;;;23.88;27.91;96343.84;4958067;28;1899;-65
2023/02/15 11:08:25;;;;;;;;;;;;;;;23.91;27.60;96348.84;4956695;28;1295;-64
2023/02/15 11:10:53;;;;;;;;;;;;;;;23.89;27.43;96351.69;4962929;28;1293;-64
2023/02/15 11:13:20;;;;;;;;;;;;;;;23.88;27.85;96342.00;4958232;28;759;-64
2023/02/15 11:15:54;;;;;;;;;;;;;;;23.89;27.77;96351.69;4957971;28;893;-64
2023/02/15 11:18:38;;;;;;;;;;;;;;;23.86;27.74;96341.38;4957914;28;878;-64
2023/02/15 11:21:03;;;;;;;;;;;;;;;23.85;27.77;96357.63;4952893;28;1040;-65
2023/02/15 11:23:30;;;;;;;;;;;;;;;23.85;27.69;96352.25;4952831;29;1071;-64
2023/02/15 11:25:55;;;;;;;;;;;;;;;23.87;27.81;96347.56;4972574;28;1973;-64
2023/02/15 11:28:40;;;;;;;;;;;;;;;23.86;27.69;96345.91;4957086;28;1197;-65
2023/02/15 11:31:20;;;;;;;;;;;;;;;23.86;27.83;96345.91;4957410;28;1019;-65
2023/02/15 11:33:49;;;;;;;;;;;;;;;23.86;27.82;96346.72;4947895;28;1134;-65
2023/02/15 11:36:34;;;;;;;;;;;;;;;23.86;27.81;96341.38;4956447;28;1354;-66
2023/02/15 11:39:08;;;;;;;;;;;;;;;23.87;27.78;96337.66;4972061;28;1367;-65
2023/02/15 11:41:37;;;;;;;;;;;;;;;23.87;27.82;96337.66;4957560;28;846;-66
2023/02/15 11:44:02;;;;;;;;;;;;;;;23.87;27.81;96337.66;4948034;28;1141;-65
2023/02/15 11:46:28;;;;;;;;;;;;;;;23.87;27.68;96332.28;4957092;28;1959;-65
2023/02/15 11:48:53;;;;;;;;;;;;;;;23.90;27.65;96331.91;4957416;28;855;-64
2023/02/15 11:51:21;;;;;;;;;;;;;;;23.91;27.74;96328.22;4956058;28;1219;-65
2023/02/15 11:53:47;;;;;;;;;;;;;;;23.91;27.72;96317.50;4957377;28;849;-65
2023/02/15 11:56:14;;;;;;;;;;;;;;;23.94;27.67;96309.06;4947301;28;1141;-65
2023/02/15 11:58:42;;;;;;;;;;;;;;;23.93;27.62;96314.59;4957597;28;794;-65
2023/02/15 12:01:22;;;;;;;;;;;;;;;23.93;27.76;96315.44;4957034;28;893;-65
2023/02/15 12:03:52;;;;;;;;;;;;;;;23.93;27.73;96311.94;4957272;28;901;-65
2023/02/15 12:06:24;;;;;;;;;;;;;;;23.93;27.72;96310.06;4952207;28;1902;-64
2023/02/15 12:09:13;;;;;;;;;;;;;;;23.93;27.75;96299.34;4950834;28;1370;-65
2023/02/15 12:11:40;;;;;;;;;;;;;;;23.91;27.72;96306.78;4953066;28;1117;-65
2023/02/15 12:14:06;;;;;;;;;;;;;;;23.90;27.76;96299.75;4956990;28;920;-65
2023/02/15 12:16:34;;;;;;;;;;;;;;;23.92;27.63;96302.25;4957157;28;811;-65
2023/02/15 12:19:00;;;;;;;;;;;;;;;23.95;27.73;96300.00;4946973;28;1040;-64
2023/02/15 12:21:28;;;;;;;;;;;;;;;23.93;27.56;96302.03;4955488;28;1357;-64
2023/02/15 12:23:55;;;;;;;;;;;;;;;23.92;27.56;96284.28;4971655;28;1372;-65
2023/02/15 12:26:28;;;;;;;;;;;;;;;23.92;27.78;96283.47;4956725;28;1970;-66
2023/02/15 12:28:57;;;;;;;;;;;;;;;23.92;27.62;96280.78;4952159;28;976;-65
2023/02/15 12:31:26;;;;;;;;;;;;;;;23.93;27.80;96288.63;4951574;28;1247;-64
2023/02/15 12:33:53;;;;;;;;;;;;;;;23.94;27.67;96286.78;4956650;28;894;-65
2023/02/15 12:36:21;;;;;;;;;;;;;;;23.92;27.44;96278.13;4956593;28;894;-65
2023/02/15 12:39:02;;;;;;;;;;;;;;;23.90;27.74;96291.69;4956526;28;777;-65
2023/02/15 12:41:28;;;;;;;;;;;;;;;23.92;27.59;96281.63;4945426;28;1319;-65
2023/02/15 12:44:13;;;;;;;;;;;;;;;23.92;27.78;96265.53;4956440;28;786;-65
2023/02/15 12:46:38;;;;;;;;;;;;;;;23.86;27.80;96271.69;4952409;28;1906;-64
2023/02/15 12:49:09;;;;;;;;;;;;;;;23.86;27.69;96269.00;4956365;28;822;-64
2023/02/15 12:52:06;;;;;;;;;;;;;;;23.86;27.74;96258.28;4951591;28;1064;-64
2023/02/15 12:54:42;;;;;;;;;;;;;;;23.86;27.85;96266.31;4961502;28;1581;-65
2023/02/15 12:57:26;;;;;;;;;;;;;;;23.87;27.81;96251.88;4956145;28;878;-65
2023/02/15 12:59:53;;;;;;;;;;;;;;;23.85;27.80;96250.44;4956122;28;865;-64
2023/02/15 13:02:26;;;;;;;;;;;;;;;23.87;27.89;96251.06;4956267;28;865;-64
2023/02/15 13:04:52;;;;;;;;;;;;;;;23.84;27.98;96254.97;4946229;28;1156;-65
2023/02/15 13:07:18;;;;;;;;;;;;;;;23.83;27.91;96255.19;4955709;28;1976;-65
2023/02/15 13:09:43;;;;;;;;;;;;;;;23.86;27.87;96252.09;4956021;28;893;-65
2023/02/15 13:12:32;;;;;;;;;;;;;;;23.87;27.83;96246.53;4955916;28;858;-69
2023/02/15 13:14:58;;;;;;;;;;;;;;;23.86;27.80;96254.78;4946218;28;1153;-64
2023/02/15 13:17:29;;;;;;;;;;;;;;;23.87;27.88;96256.44;4955500;28;1219;-64
2023/02/15 13:19:56;;;;;;;;;;;;;;;23.87;27.79;96254.56;4956004;29;862;-65
2023/02/15 13:22:47;;;;;;;;;;;;;;;23.88;27.78;96247.34;4954330;28;1333;-65
2023/02/15 13:25:19;;;;;;;;;;;;;;;23.83;27.81;96250.63;4968641;28;1313;-64
2023/02/15 13:27:46;;;;;;;;;;;;;;;23.87;27.98;96243.03;4945953;28;1919;-66
2023/02/15 13:30:22;;;;;;;;;;;;;;;23.87;27.85;96245.72;4954477;28;1397;-65
2023/02/15 13:32:49;;;;;;;;;;;;;;;23.89;27.84;96255.22;4970442;28;1387;-65